createdAt,value
2018-12-07T00:01:07.605Z,5.43
2018-12-07T00:03:36.826Z,5.30
2018-12-07T00:06:05.863Z,5.47
2018-12-07T00:08:34.843Z,4.47
2018-12-07T00:11:03.911Z,5.37
2018-12-07T00:13:33.103Z,5.67
2018-12-07T00:16:02.316Z,4.97
2018-12-07T00:18:31.177Z,4.70
2018-12-07T00:21:00.191Z,4.97
2018-12-07T00:23:29.386Z,4.03
2018-12-07T00:25:58.593Z,4.40
2018-12-07T00:28:27.462Z,4.93
2018-12-07T00:30:56.321Z,3.80
2018-12-07T00:33:25.281Z,3.73
2018-12-07T00:35:54.317Z,3.70
2018-12-07T00:38:23.352Z,3.43
2018-12-07T00:40:52.240Z,3.60
2018-12-07T00:43:21.096Z,3.87
2018-12-07T00:45:49.963Z,3.50
2018-12-07T00:48:18.908Z,4.10
2018-12-07T00:50:47.807Z,3.47
2018-12-07T00:53:16.741Z,4.23
2018-12-07T00:55:45.624Z,4.47
2018-12-07T00:58:14.478Z,3.90
2018-12-07T01:00:43.390Z,4.47
2018-12-07T01:03:12.337Z,3.77
2018-12-07T01:05:42.429Z,4.77
2018-12-07T01:08:11.361Z,3.57
2018-12-07T01:10:40.287Z,3.63
2018-12-07T01:13:09.229Z,3.37
2018-12-07T01:15:38.246Z,4.77
2018-12-07T01:18:07.313Z,3.70
2018-12-07T01:20:36.260Z,5.60
2018-12-07T01:23:05.366Z,4.60
2018-12-07T01:25:34.549Z,4.33
2018-12-07T01:28:03.528Z,3.67
2018-12-07T01:30:42.071Z,4.67
2018-12-07T01:33:10.976Z,5.73
2018-12-07T01:35:39.933Z,4.30
2018-12-07T01:38:08.813Z,3.10
2018-12-07T01:40:37.773Z,3.77
2018-12-07T01:43:06.640Z,5.83
2018-12-07T01:45:35.960Z,2.70
2018-12-07T01:48:04.898Z,3.10
2018-12-07T01:50:33.757Z,3.03
2018-12-07T01:53:02.789Z,4.00
2018-12-07T01:55:31.792Z,3.03
2018-12-07T01:58:00.760Z,3.20
2018-12-07T02:00:30.064Z,3.40
2018-12-07T02:02:59.076Z,3.73
2018-12-07T02:05:27.933Z,3.33
2018-12-07T02:07:56.834Z,2.83
2018-12-07T02:10:25.693Z,3.07
2018-12-07T02:12:54.681Z,2.77
2018-12-07T02:15:23.529Z,3.33
2018-12-07T02:17:54.404Z,2.80
2018-12-07T02:20:23.257Z,3.33
2018-12-07T02:22:52.109Z,4.50
2018-12-07T02:25:21.086Z,2.40
2018-12-07T02:27:55.322Z,3.77
2018-12-07T02:30:24.363Z,2.30
2018-12-07T02:32:53.346Z,2.63
2018-12-07T02:35:22.402Z,2.30
2018-12-07T02:37:58.033Z,2.20
2018-12-07T02:40:26.981Z,2.30
2018-12-07T02:42:56.613Z,3.30
2018-12-07T02:45:25.552Z,3.60
2018-12-07T02:47:54.408Z,2.47
2018-12-07T02:50:23.394Z,3.17
2018-12-07T02:52:52.255Z,2.30
2018-12-07T02:55:21.324Z,2.40
2018-12-07T02:57:50.401Z,2.30
2018-12-07T03:00:19.332Z,2.40
2018-12-07T03:02:48.379Z,2.50
2018-12-07T03:05:17.288Z,3.53
2018-12-07T03:07:46.300Z,3.13
2018-12-07T03:10:15.439Z,1.97
2018-12-07T03:12:44.264Z,2.67
2018-12-07T03:15:13.333Z,2.40
2018-12-07T03:17:42.226Z,3.57
2018-12-07T03:20:11.308Z,2.43
2018-12-07T03:22:40.297Z,2.00
2018-12-07T03:25:09.277Z,2.00
2018-12-07T03:27:38.272Z,2.73
2018-12-07T03:30:07.400Z,2.10
2018-12-07T03:32:36.342Z,2.20
2018-12-07T03:35:05.732Z,2.17
2018-12-07T03:37:34.755Z,2.30
2018-12-07T03:40:04.363Z,1.93
2018-12-07T03:42:33.401Z,1.90
2018-12-07T03:45:02.535Z,1.87
2018-12-07T03:47:32.256Z,1.60
2018-12-07T03:50:01.166Z,1.77
2018-12-07T03:52:30.242Z,2.50
2018-12-07T03:54:59.438Z,1.80
2018-12-07T03:57:29.289Z,2.23
2018-12-07T03:59:58.323Z,1.73
2018-12-07T04:02:27.534Z,2.00
2018-12-07T04:04:56.607Z,3.20
2018-12-07T04:07:25.588Z,3.63
2018-12-07T04:09:54.521Z,1.50
2018-12-07T04:12:23.465Z,1.70
2018-12-07T04:14:52.333Z,1.77
2018-12-07T04:17:21.311Z,1.97
2018-12-07T04:19:50.285Z,2.67
2018-12-07T04:22:19.309Z,2.37
2018-12-07T04:24:48.256Z,2.13
2018-12-07T04:27:17.144Z,2.10
2018-12-07T04:29:46.099Z,2.87
2018-12-07T04:32:15.164Z,2.37
2018-12-07T04:34:44.083Z,2.33
2018-12-07T04:37:13.071Z,2.00
2018-12-07T04:39:42.116Z,2.30
2018-12-07T04:42:11.115Z,2.33
2018-12-07T04:44:39.978Z,2.10
2018-12-07T04:47:08.838Z,3.47
2018-12-07T04:49:37.729Z,2.33
2018-12-07T04:52:07.714Z,7.77
2018-12-07T04:54:36.692Z,3.10
2018-12-07T04:57:05.643Z,1.83
2018-12-07T04:59:34.605Z,1.70
2018-12-07T05:02:10.105Z,2.00
2018-12-07T05:04:38.977Z,2.27
2018-12-07T05:07:08.091Z,2.43
2018-12-07T05:09:36.990Z,2.63
2018-12-07T05:12:05.935Z,2.27
2018-12-07T05:14:34.891Z,2.07
2018-12-07T05:17:03.858Z,2.50
2018-12-07T05:19:32.837Z,3.30
2018-12-07T05:22:01.942Z,3.50
2018-12-07T05:24:30.936Z,3.87
2018-12-07T05:26:59.870Z,5.03
2018-12-07T05:29:28.765Z,3.97
2018-12-07T05:31:57.986Z,4.40
2018-12-07T05:34:26.920Z,3.43
2018-12-07T05:36:55.818Z,3.73
2018-12-07T05:39:24.896Z,5.40
2018-12-07T05:41:54.050Z,3.90
2018-12-07T05:44:23.160Z,4.40
2018-12-07T05:46:52.152Z,4.63
2018-12-07T05:49:21.177Z,5.07
2018-12-07T05:51:50.528Z,4.67
2018-12-07T05:54:19.473Z,4.50
2018-12-07T05:56:48.534Z,4.00
2018-12-07T05:59:17.583Z,3.00
2018-12-07T06:01:47.568Z,3.27
2018-12-07T06:04:17.392Z,2.50
2018-12-07T06:06:46.414Z,2.50
2018-12-07T06:09:15.352Z,3.07
2018-12-07T06:11:44.384Z,2.63
2018-12-07T06:14:14.572Z,2.53
2018-12-07T06:16:43.686Z,2.00
2018-12-07T06:19:12.648Z,2.27
2018-12-07T06:21:41.544Z,3.40
2018-12-07T06:24:10.496Z,4.23
2018-12-07T06:26:39.373Z,2.77
2018-12-07T06:29:08.337Z,3.30
2018-12-07T06:31:38.104Z,4.50
2018-12-07T06:34:07.174Z,4.73
2018-12-07T06:36:36.153Z,3.10
2018-12-07T06:39:08.358Z,4.73
2018-12-07T06:41:37.377Z,5.40
2018-12-07T06:44:06.351Z,3.03
2018-12-07T06:46:35.241Z,3.27
2018-12-07T06:49:12.693Z,4.07
2018-12-07T06:51:43.324Z,4.73
2018-12-07T06:54:12.317Z,3.20
2018-12-07T06:56:41.288Z,1.90
2018-12-07T06:59:10.407Z,3.67
2018-12-07T07:01:39.409Z,3.93
2018-12-07T07:04:08.296Z,3.10
2018-12-07T07:06:37.914Z,3.93
2018-12-07T07:09:08.728Z,3.63
2018-12-07T07:11:37.746Z,5.60
2018-12-07T07:14:06.752Z,5.17
2018-12-07T07:16:35.871Z,4.50
2018-12-07T07:19:04.987Z,6.07
2018-12-07T07:21:33.993Z,4.57
2018-12-07T07:24:02.925Z,6.70
2018-12-07T07:26:32.004Z,5.07
2018-12-07T07:29:01.116Z,9.07
2018-12-07T07:31:30.089Z,5.70
2018-12-07T07:33:58.924Z,5.50
2018-12-07T07:36:27.868Z,6.57
2018-12-07T07:38:56.742Z,4.20
2018-12-07T07:41:25.606Z,4.67
2018-12-07T07:43:54.495Z,6.83
2018-12-07T07:46:23.369Z,5.90
2018-12-07T07:48:52.191Z,5.90
2018-12-07T07:51:21.140Z,5.53
2018-12-07T07:53:49.995Z,6.37
2018-12-07T07:56:18.916Z,14.67
2018-12-07T07:58:47.857Z,7.53
2018-12-07T08:01:16.824Z,5.23
2018-12-07T08:03:45.990Z,5.70
2018-12-07T08:06:14.828Z,6.77
2018-12-07T08:08:43.753Z,4.67
2018-12-07T08:11:12.686Z,5.93
2018-12-07T08:13:41.865Z,5.10
2018-12-07T08:16:10.737Z,7.43
2018-12-07T08:18:39.640Z,4.50
2018-12-07T08:21:08.658Z,5.17
2018-12-07T08:23:37.544Z,6.50
2018-12-07T08:26:06.549Z,3.33
2018-12-07T08:28:35.499Z,6.13
2018-12-07T08:31:04.513Z,8.10
2018-12-07T08:33:33.589Z,4.73
2018-12-07T08:36:02.551Z,5.37
2018-12-07T08:38:31.372Z,3.63
2018-12-07T08:41:00.365Z,4.90
2018-12-07T08:43:29.224Z,4.03
2018-12-07T08:45:58.118Z,4.03
2018-12-07T08:48:27.033Z,4.23
2018-12-07T08:50:56.083Z,4.27
2018-12-07T08:53:25.388Z,5.27
2018-12-07T08:55:54.320Z,3.93
2018-12-07T08:58:23.247Z,5.23
2018-12-07T09:00:52.189Z,6.40
2018-12-07T09:03:21.405Z,4.60
2018-12-07T09:05:50.447Z,6.90
2018-12-07T09:08:19.511Z,4.03
2018-12-07T09:10:48.385Z,6.50
2018-12-07T09:13:17.487Z,7.37
2018-12-07T09:15:46.442Z,7.37
2018-12-07T09:18:15.319Z,5.63
2018-12-07T09:20:44.309Z,6.37
2018-12-07T09:23:13.306Z,8.57
2018-12-07T09:25:42.386Z,3.30
2018-12-07T09:28:11.256Z,6.00
2018-12-07T09:30:41.231Z,5.23
2018-12-07T09:33:11.460Z,4.13
2018-12-07T09:35:40.325Z,6.23
2018-12-07T09:38:13.155Z,3.23
2018-12-07T09:40:40.130Z,5.30
2018-12-07T09:43:09.328Z,6.60
2018-12-07T09:45:38.214Z,5.23
2018-12-07T09:48:07.166Z,4.83
2018-12-07T09:50:36.045Z,7.63
2018-12-07T09:53:05.161Z,4.23
2018-12-07T09:55:34.108Z,4.27
2018-12-07T09:58:02.980Z,5.33
2018-12-07T10:00:33.203Z,7.17
2018-12-07T10:03:02.212Z,6.47
2018-12-07T10:05:31.182Z,8.30
2018-12-07T10:08:00.080Z,6.37
2018-12-07T10:10:28.939Z,4.43
2018-12-07T10:12:57.804Z,4.63
2018-12-07T10:15:26.888Z,6.70
2018-12-07T10:17:55.909Z,6.60
2018-12-07T10:20:24.984Z,8.07
2018-12-07T10:22:53.991Z,6.53
2018-12-07T10:25:22.892Z,4.40
2018-12-07T10:27:51.847Z,4.13
2018-12-07T10:30:20.814Z,5.90
2018-12-07T10:32:50.544Z,5.37
2018-12-07T10:35:19.529Z,5.33
2018-12-07T10:37:48.537Z,5.93
2018-12-07T10:40:18.636Z,7.93
2018-12-07T10:42:47.541Z,6.37
2018-12-07T10:45:16.402Z,5.23
2018-12-07T10:47:50.202Z,8.40
2018-12-07T10:50:16.377Z,6.00
2018-12-07T10:52:45.278Z,7.20
2018-12-07T10:55:14.181Z,9.90
2018-12-07T10:57:43.071Z,8.57
2018-12-07T11:00:22.741Z,7.80
2018-12-07T11:02:54.313Z,9.70
2018-12-07T11:05:28.834Z,9.40
2018-12-07T11:08:03.169Z,8.43
2018-12-07T11:10:37.452Z,6.80
2018-12-07T11:13:11.827Z,6.90
2018-12-07T11:15:46.039Z,10.03
2018-12-07T11:18:20.260Z,8.30
2018-12-07T11:20:55.846Z,9.93
2018-12-07T11:23:32.052Z,7.50
2018-12-07T11:26:06.264Z,8.13
2018-12-07T11:28:40.499Z,7.63
2018-12-07T11:34:03.123Z,11.53
2018-12-07T11:36:32.096Z,6.83
2018-12-07T11:39:01.577Z,7.10
2018-12-07T11:41:30.590Z,8.93
2018-12-07T11:44:01.568Z,7.30
2018-12-07T11:46:30.519Z,5.87
2018-12-07T11:49:00.197Z,7.33
2018-12-07T11:51:29.989Z,6.50
2018-12-07T11:53:58.980Z,8.30
2018-12-07T11:56:29.176Z,7.93
2018-12-07T11:58:58.241Z,6.07
2018-12-07T12:01:30.199Z,6.20
2018-12-07T12:03:59.414Z,7.33
2018-12-07T12:06:29.272Z,6.17
2018-12-07T12:08:58.133Z,6.00
2018-12-07T12:11:29.003Z,6.20
2018-12-07T12:13:57.961Z,6.30
2018-12-07T12:16:26.868Z,6.17
2018-12-07T12:18:55.737Z,8.50
2018-12-07T12:21:24.691Z,7.23
2018-12-07T12:23:54.043Z,4.93
2018-12-07T12:26:23.221Z,6.17
2018-12-07T12:28:52.245Z,5.70
2018-12-07T12:31:21.076Z,4.70
2018-12-07T12:33:49.995Z,5.87
2018-12-07T12:36:18.941Z,4.47
2018-12-07T12:38:47.889Z,6.70
2018-12-07T12:41:16.732Z,6.30
2018-12-07T12:43:46.637Z,5.40
2018-12-07T12:46:15.781Z,5.07
2018-12-07T12:48:44.752Z,4.93
2018-12-07T12:51:14.931Z,4.03
2018-12-07T12:53:44.778Z,3.83
2018-12-07T12:56:13.723Z,8.73
2018-12-07T12:58:42.594Z,4.53
2018-12-07T13:01:11.586Z,6.00
2018-12-07T13:03:40.457Z,6.10
2018-12-07T13:06:09.638Z,3.63
2018-12-07T13:08:38.478Z,5.53
2018-12-07T13:11:07.407Z,5.77
2018-12-07T13:13:36.423Z,6.97
2018-12-07T13:16:05.588Z,4.60
2018-12-07T13:18:34.546Z,2.93
2018-12-07T13:21:03.428Z,6.40
2018-12-07T13:23:32.559Z,3.80
2018-12-07T13:26:01.513Z,4.53
2018-12-07T13:28:30.321Z,3.90
2018-12-07T13:30:59.226Z,3.47
2018-12-07T13:33:28.165Z,5.00
2018-12-07T13:35:57.274Z,5.50
2018-12-07T13:38:26.231Z,2.30
2018-12-07T13:40:55.079Z,2.03
2018-12-07T13:43:24.071Z,4.37
2018-12-07T13:45:53.226Z,3.93
2018-12-07T13:48:22.230Z,5.93
2018-12-07T13:50:51.181Z,6.03
2018-12-07T13:53:20.218Z,4.53
2018-12-07T13:55:49.420Z,2.90
2018-12-07T13:58:18.676Z,2.00
2018-12-07T14:00:47.631Z,4.27
2018-12-07T14:03:16.584Z,2.90
2018-12-07T14:05:47.027Z,2.70
2018-12-07T14:08:16.199Z,4.87
2018-12-07T14:10:45.197Z,1.93
2018-12-07T14:13:14.301Z,4.30
2018-12-07T14:15:44.158Z,2.90
2018-12-07T14:18:13.232Z,2.80
2018-12-07T14:20:42.385Z,2.33
2018-12-07T14:23:11.372Z,1.90
2018-12-07T14:25:41.451Z,1.63
2018-12-07T14:28:10.596Z,2.33
2018-12-07T14:30:39.920Z,1.93
2018-12-07T14:33:09.187Z,1.30
2018-12-07T14:35:38.283Z,2.40
2018-12-07T14:38:08.418Z,1.37
2018-12-07T14:40:37.621Z,2.20
2018-12-07T14:43:06.851Z,3.10
2018-12-07T14:45:36.121Z,1.47
2018-12-07T14:48:05.225Z,1.47
2018-12-07T14:50:35.354Z,2.23
2018-12-07T14:53:04.474Z,1.43
2018-12-07T14:55:33.686Z,1.27
2018-12-07T14:58:02.615Z,0.90
2018-12-07T15:00:31.673Z,1.70
2018-12-07T15:03:00.914Z,1.00
2018-12-07T15:05:30.318Z,0.97
2018-12-07T15:07:59.365Z,0.80
2018-12-07T15:10:28.371Z,1.63
2018-12-07T15:12:57.481Z,2.07
2018-12-07T15:15:26.439Z,1.77
2018-12-07T15:17:55.753Z,2.10
2018-12-07T15:20:24.943Z,1.13
2018-12-07T15:22:54.024Z,1.17
2018-12-07T15:25:23.042Z,2.53
2018-12-07T15:27:52.141Z,2.07
2018-12-07T15:30:21.103Z,1.20
2018-12-07T15:32:49.988Z,1.40
2018-12-07T15:35:19.106Z,3.17
2018-12-07T15:37:48.125Z,0.90
2018-12-07T15:40:17.076Z,1.47
2018-12-07T15:42:46.185Z,1.60
2018-12-07T15:45:15.267Z,1.17
2018-12-07T15:47:44.253Z,1.00
2018-12-07T15:50:13.471Z,1.30
2018-12-07T15:52:42.519Z,1.23
2018-12-07T15:55:11.704Z,1.03
2018-12-07T15:57:40.862Z,1.00
2018-12-07T16:00:10.107Z,1.27
2018-12-07T16:02:39.257Z,1.63
2018-12-07T16:05:08.474Z,1.27
2018-12-07T16:07:37.494Z,1.13
2018-12-07T16:10:07.337Z,2.03
2018-12-07T16:12:36.400Z,1.83
2018-12-07T16:15:07.035Z,2.13
2018-12-07T16:17:35.965Z,1.17
2018-12-07T16:23:02.155Z,1.60
2018-12-07T16:25:35.273Z,1.30
2018-12-07T16:28:05.253Z,2.00
2018-12-07T16:30:34.316Z,0.97
2018-12-07T16:33:03.446Z,1.07
2018-12-07T16:35:32.725Z,1.87
2018-12-07T16:38:02.036Z,2.93
2018-12-07T16:40:31.029Z,1.00
2018-12-07T16:42:59.979Z,1.50
2018-12-07T16:45:30.112Z,1.20
2018-12-07T16:47:59.198Z,1.20
2018-12-07T16:50:28.381Z,1.30
2018-12-07T16:52:57.286Z,1.57
2018-12-07T16:55:26.505Z,4.73
2018-12-07T16:57:55.613Z,2.47
2018-12-07T17:00:25.582Z,3.43
2018-12-07T17:02:55.062Z,3.53
2018-12-07T17:05:24.944Z,2.23
2018-12-07T17:07:54.233Z,1.73
2018-12-07T17:10:23.886Z,3.80
2018-12-07T17:12:53.297Z,2.13
2018-12-07T17:15:22.754Z,3.23
2018-12-07T17:17:51.876Z,4.10
2018-12-07T17:20:21.491Z,3.93
2018-12-07T17:22:50.637Z,1.70
2018-12-07T17:25:20.147Z,4.17
2018-12-07T17:27:50.568Z,2.97
2018-12-07T17:30:20.694Z,3.50
2018-12-07T17:32:49.896Z,4.13
2018-12-07T17:35:19.375Z,2.40
2018-12-07T17:37:48.644Z,4.73
2018-12-07T17:40:17.941Z,3.40
2018-12-07T17:42:48.229Z,2.20
2018-12-07T17:45:24.327Z,1.73
2018-12-07T17:47:53.439Z,2.33
2018-12-07T17:50:22.490Z,3.07
2018-12-07T17:52:52.655Z,2.00
2018-12-07T17:55:22.035Z,3.50
2018-12-07T17:57:51.393Z,3.30
2018-12-07T18:00:20.978Z,4.40
2018-12-07T18:02:50.147Z,3.27
2018-12-07T18:05:19.158Z,4.00
2018-12-07T18:07:48.409Z,2.47
2018-12-07T18:10:17.832Z,4.43
2018-12-07T18:12:48.021Z,2.07
2018-12-07T18:15:17.299Z,4.10
2018-12-07T18:17:46.700Z,2.20
2018-12-07T18:20:15.923Z,2.70
2018-12-07T18:22:44.970Z,3.10
2018-12-07T18:25:13.998Z,1.87
2018-12-07T18:27:43.229Z,3.33
2018-12-07T18:30:13.010Z,1.73
2018-12-07T18:32:42.260Z,2.73
2018-12-07T18:35:11.692Z,4.40
2018-12-07T18:37:42.155Z,4.20
2018-12-07T18:40:12.280Z,9.37
2018-12-07T18:42:41.607Z,4.07
2018-12-07T18:45:12.609Z,3.23
2018-12-07T18:47:41.768Z,3.10
2018-12-07T18:50:10.908Z,2.03
2018-12-07T18:52:40.170Z,2.17
2018-12-07T18:55:10.649Z,2.33
2018-12-07T18:57:39.920Z,2.03
2018-12-07T19:00:09.878Z,2.47
2018-12-07T19:02:39.308Z,2.97
2018-12-07T19:05:08.706Z,2.77
2018-12-07T19:07:38.400Z,2.23
2018-12-07T19:10:07.752Z,2.83
2018-12-07T19:12:37.319Z,2.03
2018-12-07T19:15:07.969Z,3.43
2018-12-07T19:17:37.223Z,2.87
2018-12-07T19:20:07.820Z,1.70
2018-12-07T19:22:36.931Z,3.60
2018-12-07T19:25:07.280Z,2.17
2018-12-07T19:27:37.336Z,2.13
2018-12-07T19:30:14.634Z,1.87
2018-12-07T19:32:40.813Z,1.77
2018-12-07T19:35:10.024Z,1.30
2018-12-07T19:37:43.108Z,1.73
2018-12-07T19:40:12.238Z,2.63
2018-12-07T19:42:43.088Z,1.73
2018-12-07T19:45:12.268Z,1.33
2018-12-07T19:47:41.584Z,1.40
2018-12-07T19:50:10.910Z,1.87
2018-12-07T19:52:40.021Z,2.30
2018-12-07T19:55:10.801Z,1.57
2018-12-07T19:57:39.860Z,2.03
2018-12-07T20:00:14.972Z,1.33
2018-12-07T20:02:44.175Z,1.50
2018-12-07T20:05:13.402Z,1.67
2018-12-07T20:07:42.721Z,1.30
2018-12-07T20:10:17.398Z,2.57
2018-12-07T20:12:46.632Z,3.63
2018-12-07T20:15:15.949Z,3.07
2018-12-07T20:17:44.963Z,2.97
2018-12-07T20:20:13.863Z,2.00
2018-12-07T20:22:42.921Z,4.20
2018-12-07T20:25:12.075Z,3.00
2018-12-07T20:27:41.385Z,3.77
2018-12-07T20:30:10.794Z,3.47
2018-12-07T20:32:39.910Z,2.70
2018-12-07T20:35:09.231Z,1.63
2018-12-07T20:37:38.313Z,3.10
2018-12-07T20:40:07.458Z,2.97
2018-12-07T20:42:36.629Z,2.43
2018-12-07T20:45:06.412Z,2.53
2018-12-07T20:47:35.479Z,4.13
2018-12-07T20:50:05.323Z,3.37
2018-12-07T20:52:35.700Z,3.10
2018-12-07T20:55:05.175Z,2.37
2018-12-07T20:57:34.237Z,3.00
2018-12-07T21:00:03.548Z,2.27
2018-12-07T21:02:33.744Z,3.10
2018-12-07T21:07:33.193Z,4.17
2018-12-07T21:11:10.278Z,6.00
2018-12-07T21:13:51.583Z,2.53
2018-12-07T21:17:03.095Z,3.23
2018-12-07T21:19:32.951Z,2.93
2018-12-07T21:22:02.492Z,3.17
2018-12-07T21:24:32.743Z,2.97
2018-12-07T21:27:01.952Z,2.87
2018-12-07T21:29:31.119Z,1.77
2018-12-07T21:32:02.517Z,3.10
2018-12-07T21:34:47.603Z,2.87
2018-12-07T21:37:16.536Z,2.80
2018-12-07T21:39:49.472Z,3.47
2018-12-07T21:42:18.900Z,5.83
2018-12-07T21:44:48.273Z,2.50
2018-12-07T21:48:34.417Z,2.47
2018-12-07T21:53:17.391Z,2.50
2018-12-07T21:55:46.765Z,2.80
2018-12-07T21:58:17.471Z,3.67
2018-12-07T22:00:47.786Z,5.30
2018-12-07T22:03:17.927Z,3.37
2018-12-07T22:05:47.323Z,4.47
2018-12-07T22:08:16.817Z,4.83
2018-12-07T22:10:46.028Z,3.70
2018-12-07T22:13:15.082Z,3.83
2018-12-07T22:15:44.329Z,3.77
2018-12-07T22:18:13.546Z,3.67
2018-12-07T22:20:42.776Z,5.00
2018-12-07T22:23:12.249Z,2.93
2018-12-07T22:25:41.324Z,7.27
2018-12-07T22:28:10.604Z,7.63
2018-12-07T22:30:39.865Z,5.83
2018-12-07T22:33:09.144Z,3.60
2018-12-07T22:35:38.254Z,4.40
2018-12-07T22:38:07.790Z,4.50
2018-12-07T22:40:37.070Z,3.60
2018-12-07T22:43:06.649Z,4.27
2018-12-07T22:45:35.890Z,4.07
2018-12-07T22:48:06.212Z,4.73
2018-12-07T22:50:35.323Z,3.57
2018-12-07T22:53:04.226Z,6.60
2018-12-07T22:55:33.141Z,6.37
2018-12-07T22:58:02.595Z,5.10
2018-12-07T23:00:31.850Z,5.53
2018-12-07T23:03:02.821Z,6.50
2018-12-07T23:05:31.757Z,6.07
2018-12-07T23:08:00.769Z,6.37
2018-12-07T23:10:29.680Z,4.57
2018-12-07T23:12:58.662Z,5.67
2018-12-07T23:15:27.540Z,4.73
2018-12-07T23:17:56.472Z,5.47
2018-12-07T23:23:09.484Z,8.07
2018-12-07T23:25:38.422Z,7.90
2018-12-07T23:28:07.415Z,4.57
2018-12-07T23:30:36.522Z,7.07
2018-12-07T23:33:05.748Z,4.33
2018-12-07T23:35:34.749Z,7.27
2018-12-07T23:38:03.907Z,4.90
2018-12-07T23:40:32.800Z,9.37
2018-12-07T23:43:01.813Z,6.53
2018-12-07T23:45:30.855Z,5.37
2018-12-07T23:48:00.001Z,7.70
2018-12-07T23:50:28.944Z,4.70
2018-12-07T23:52:57.870Z,7.67
2018-12-07T23:55:26.842Z,3.40
2018-12-07T23:57:55.800Z,5.27
